createdAt,value
2023-05-05T00:00:15.712Z,49.59
2023-05-05T00:01:49.063Z,49.33
2023-05-05T00:03:11.073Z,49.34
2023-05-05T00:04:32.546Z,48.65
2023-05-05T00:05:57.521Z,48.80
2023-05-05T00:07:19.673Z,49.00
2023-05-05T00:08:41.983Z,48.72
2023-05-05T00:10:06.620Z,48.81
2023-05-05T00:11:31.096Z,49.36
2023-05-05T00:12:54.935Z,49.40
2023-05-05T00:14:16.574Z,48.47
2023-05-05T00:15:38.213Z,48.74
2023-05-05T00:17:01.997Z,48.69
2023-05-05T00:18:23.821Z,49.47
2023-05-05T00:19:45.549Z,49.76
2023-05-05T00:21:09.559Z,49.40
2023-05-05T00:22:31.379Z,49.08
2023-05-05T00:24:00.800Z,49.62
2023-05-05T00:25:25.096Z,49.91
2023-05-05T00:26:46.375Z,49.50
2023-05-05T00:28:08.464Z,49.11
2023-05-05T00:29:32.709Z,49.22
2023-05-05T00:31:02.295Z,49.58
2023-05-05T00:32:23.798Z,49.95
2023-05-05T00:33:45.358Z,49.30
2023-05-05T00:35:14.574Z,49.37
2023-05-05T00:36:38.750Z,49.32
2023-05-05T00:38:17.060Z,49.60
2023-05-05T00:39:48.797Z,49.80
2023-05-05T00:41:11.067Z,49.87
2023-05-05T00:42:34.893Z,49.50
2023-05-05T00:43:56.648Z,49.54
2023-05-05T00:45:26.082Z,49.86
2023-05-05T00:46:47.750Z,49.40
2023-05-05T00:48:11.887Z,49.69
2023-05-05T00:49:34.168Z,49.47
2023-05-05T00:50:55.888Z,50.05
2023-05-05T00:52:19.886Z,49.61
2023-05-05T00:53:43.014Z,50.12
2023-05-05T00:55:12.566Z,49.80
2023-05-05T00:56:34.380Z,50.27
2023-05-05T00:57:58.380Z,50.08
2023-05-05T00:59:32.063Z,49.69
2023-05-05T01:00:56.548Z,49.82
2023-05-05T01:02:25.982Z,50.09
2023-05-05T01:03:59.669Z,50.62
2023-05-05T01:05:29.240Z,50.34
2023-05-05T01:07:01.033Z,50.38
2023-05-05T01:08:22.724Z,50.26
2023-05-05T01:09:44.498Z,50.90
2023-05-05T01:11:08.255Z,50.21
2023-05-05T01:12:41.907Z,50.62
2023-05-05T01:14:06.333Z,50.82
2023-05-05T01:15:39.638Z,50.84
2023-05-05T01:17:13.959Z,51.51
2023-05-05T01:18:35.721Z,51.10
2023-05-05T01:20:00.138Z,51.08
2023-05-05T01:21:23.375Z,50.53
2023-05-05T01:22:45.291Z,50.71
2023-05-05T01:24:07.781Z,50.71
2023-05-05T01:25:31.666Z,51.05
2023-05-05T01:26:55.857Z,50.84
2023-05-05T01:28:17.554Z,50.81
2023-05-05T01:29:51.453Z,51.37
2023-05-05T01:31:13.321Z,51.51
2023-05-05T01:32:37.656Z,51.56
2023-05-05T01:34:11.186Z,51.58
2023-05-05T01:35:33.250Z,51.93
2023-05-05T01:37:04.678Z,52.19
2023-05-05T01:38:29.236Z,52.31
2023-05-05T01:39:50.783Z,52.95
2023-05-05T01:41:12.899Z,52.38
2023-05-05T01:42:37.513Z,53.13
2023-05-05T01:44:01.687Z,52.69
2023-05-05T01:45:23.535Z,52.78
2023-05-05T01:46:47.306Z,52.47
2023-05-05T01:48:09.412Z,52.62
2023-05-05T01:49:33.384Z,53.18
2023-05-05T01:50:55.295Z,52.80
2023-05-05T01:52:18.930Z,53.22
2023-05-05T01:53:41.447Z,53.13
2023-05-05T01:55:04.577Z,53.47
2023-05-05T01:56:26.214Z,53.53
2023-05-05T01:57:56.892Z,53.63
2023-05-05T01:59:30.078Z,53.87
2023-05-05T02:01:03.930Z,53.38
2023-05-05T02:02:32.781Z,53.12
2023-05-05T02:03:57.869Z,53.03
2023-05-05T02:05:21.910Z,53.36
2023-05-05T02:06:51.708Z,54.09
2023-05-05T02:08:16.077Z,53.27
2023-05-05T02:09:38.097Z,53.32
2023-05-05T02:11:06.966Z,53.34
2023-05-05T02:12:28.819Z,53.21
2023-05-05T02:13:50.473Z,53.60
2023-05-05T02:15:11.872Z,53.23
2023-05-05T02:16:33.657Z,53.53
2023-05-05T02:17:57.855Z,53.75
2023-05-05T02:19:19.749Z,53.84
2023-05-05T02:20:43.220Z,53.87
2023-05-05T02:22:05.866Z,54.09
2023-05-05T02:23:28.202Z,53.47
2023-05-05T02:24:49.898Z,53.57
2023-05-05T02:26:12.204Z,53.52
2023-05-05T02:27:34.301Z,53.31
2023-05-05T02:28:56.263Z,53.95
2023-05-05T02:30:18.057Z,54.23
2023-05-05T02:31:39.738Z,54.42
2023-05-05T02:33:03.887Z,54.71
2023-05-05T02:34:28.084Z,54.32
2023-05-05T02:35:49.467Z,54.03
2023-05-05T02:37:12.006Z,54.27
2023-05-05T02:38:36.879Z,54.26
2023-05-05T02:39:59.128Z,54.62
2023-05-05T02:41:24.023Z,54.96
2023-05-05T02:42:46.389Z,54.70
2023-05-05T02:44:08.978Z,54.75
2023-05-05T02:45:31.323Z,54.44
2023-05-05T02:46:57.559Z,54.59
2023-05-05T02:48:21.383Z,54.90
2023-05-05T02:49:43.539Z,54.85
2023-05-05T02:51:07.829Z,54.50
2023-05-05T02:52:33.726Z,55.03
2023-05-05T02:53:55.766Z,55.05
2023-05-05T02:55:18.375Z,55.20
2023-05-05T02:56:42.680Z,55.52
2023-05-05T02:58:04.332Z,55.53
2023-05-05T02:59:27.257Z,55.39
2023-05-05T03:00:49.486Z,55.60
2023-05-05T03:02:15.040Z,55.30
2023-05-05T03:03:37.108Z,55.25
2023-05-05T03:04:58.932Z,55.31
2023-05-05T03:06:21.542Z,55.51
2023-05-05T03:07:43.553Z,55.49
2023-05-05T03:09:06.243Z,55.55
2023-05-05T03:10:35.757Z,55.61
2023-05-05T03:11:59.619Z,55.55
2023-05-05T03:13:21.802Z,55.78
2023-05-05T03:14:43.448Z,55.62
2023-05-05T03:16:06.988Z,56.07
2023-05-05T03:17:28.695Z,55.83
2023-05-05T03:18:53.859Z,55.85
2023-05-05T03:20:15.474Z,55.84
2023-05-05T03:21:38.563Z,55.81
2023-05-05T03:23:03.024Z,56.10
2023-05-05T03:24:24.604Z,56.12
2023-05-05T03:25:52.627Z,56.18
2023-05-05T03:27:26.944Z,55.78
2023-05-05T03:28:48.340Z,55.76
2023-05-05T03:30:14.576Z,55.86
2023-05-05T03:31:41.742Z,55.65
2023-05-05T03:33:22.952Z,55.00
2023-05-05T03:34:45.088Z,54.55
2023-05-05T03:36:08.028Z,54.41
2023-05-05T03:37:31.595Z,54.01
2023-05-05T03:38:53.320Z,54.08
2023-05-05T03:40:17.607Z,53.92
2023-05-05T03:41:39.263Z,53.57
2023-05-05T03:43:03.917Z,53.84
2023-05-05T03:44:26.379Z,53.65
2023-05-05T03:45:48.061Z,53.81
2023-05-05T03:47:10.135Z,54.26
2023-05-05T03:48:39.735Z,53.79
2023-05-05T03:50:02.260Z,53.56
2023-05-05T03:51:24.223Z,53.86
2023-05-05T03:52:46.043Z,53.88
2023-05-05T03:54:17.641Z,53.52
2023-05-05T03:55:42.049Z,53.35
2023-05-05T03:57:13.683Z,53.40
2023-05-05T03:58:36.040Z,53.55
2023-05-05T04:00:00.322Z,53.42
2023-05-05T04:01:23.378Z,52.80
2023-05-05T04:02:45.338Z,53.20
2023-05-05T04:04:10.292Z,53.36
2023-05-05T04:05:32.276Z,53.11
2023-05-05T04:06:53.817Z,53.31
2023-05-05T04:08:22.604Z,52.77
2023-05-05T04:09:44.733Z,52.47
2023-05-05T04:11:09.560Z,52.39
2023-05-05T04:12:31.849Z,52.93
2023-05-05T04:13:54.254Z,52.56
2023-05-05T04:15:18.674Z,52.54
2023-05-05T04:16:40.979Z,53.01
2023-05-05T04:18:03.458Z,52.60
2023-05-05T04:19:25.641Z,52.44
2023-05-05T04:20:56.855Z,52.37
2023-05-05T04:22:21.240Z,52.38
2023-05-05T04:23:53.487Z,52.18
2023-05-05T04:25:15.989Z,52.07
2023-05-05T04:26:38.560Z,52.29
2023-05-05T04:28:00.265Z,51.98
2023-05-05T04:29:29.812Z,51.95
2023-05-05T04:30:51.816Z,51.80
2023-05-05T04:32:13.564Z,51.79
2023-05-05T04:33:40.255Z,51.95
2023-05-05T04:35:02.202Z,51.49
2023-05-05T04:36:23.469Z,51.42
2023-05-05T04:37:54.865Z,51.81
2023-05-05T04:39:19.855Z,51.31
2023-05-05T04:40:41.740Z,51.43
2023-05-05T04:42:04.691Z,51.48
2023-05-05T04:43:26.192Z,51.25
2023-05-05T04:44:47.623Z,51.32
2023-05-05T04:46:10.047Z,51.03
2023-05-05T04:47:31.910Z,50.58
2023-05-05T04:48:53.887Z,51.06
2023-05-05T04:50:15.496Z,50.47
2023-05-05T04:51:37.039Z,51.06
2023-05-05T04:53:01.039Z,50.58
2023-05-05T04:54:23.208Z,50.78
2023-05-05T04:55:44.967Z,50.41
2023-05-05T04:57:07.404Z,50.91
2023-05-05T04:58:29.860Z,51.36
2023-05-05T04:59:54.036Z,51.57
2023-05-05T05:01:15.999Z,51.63
2023-05-05T05:02:38.222Z,51.10
2023-05-05T05:04:00.476Z,51.70
2023-05-05T05:05:30.294Z,51.09
2023-05-05T05:06:59.091Z,51.07
2023-05-05T05:08:23.168Z,51.21
2023-05-05T05:09:46.897Z,51.47
2023-05-05T05:11:13.873Z,51.50
2023-05-05T05:12:42.748Z,51.56
2023-05-05T05:14:08.060Z,50.94
2023-05-05T05:15:30.161Z,51.29
2023-05-05T05:16:52.502Z,50.98
2023-05-05T05:18:21.983Z,50.53
2023-05-05T05:19:44.156Z,50.95
2023-05-05T05:21:08.483Z,50.51
2023-05-05T05:22:30.429Z,50.52
2023-05-05T05:24:03.644Z,50.48
2023-05-05T05:25:33.095Z,50.61
2023-05-05T05:26:57.131Z,50.48
2023-05-05T05:28:26.611Z,50.71
2023-05-05T05:29:59.124Z,50.91
2023-05-05T05:31:20.809Z,50.74
2023-05-05T05:32:45.376Z,51.30
2023-05-05T05:34:07.594Z,51.37
2023-05-05T05:35:29.900Z,50.97
2023-05-05T05:36:51.316Z,51.06
2023-05-05T05:38:21.150Z,51.19
2023-05-05T05:39:46.009Z,51.35
2023-05-05T05:41:15.491Z,51.33
2023-05-05T05:42:44.686Z,51.53
2023-05-05T05:44:07.279Z,51.17
2023-05-05T05:45:29.239Z,51.75
2023-05-05T05:46:55.846Z,51.26
2023-05-05T05:48:18.114Z,51.13
2023-05-05T05:49:47.308Z,51.24
2023-05-05T05:51:11.672Z,51.27
2023-05-05T05:52:33.707Z,51.27
2023-05-05T05:53:58.949Z,51.36
2023-05-05T05:55:23.496Z,50.75
2023-05-05T05:56:45.580Z,50.94
2023-05-05T05:58:07.790Z,50.94
2023-05-05T05:59:32.084Z,50.59
2023-05-05T06:00:53.453Z,50.89
2023-05-05T06:02:28.332Z,50.94
2023-05-05T06:03:50.727Z,50.61
2023-05-05T06:05:13.088Z,50.36
2023-05-05T06:06:36.333Z,50.26
2023-05-05T06:07:58.220Z,50.07
2023-05-05T06:09:20.008Z,49.87
2023-05-05T06:10:42.311Z,49.74
2023-05-05T06:12:09.400Z,49.37
2023-05-05T06:13:31.134Z,49.05
2023-05-05T06:14:52.547Z,49.33
2023-05-05T06:16:14.597Z,49.48
2023-05-05T06:17:36.999Z,48.76
2023-05-05T06:18:58.574Z,48.48
2023-05-05T06:20:20.083Z,49.42
2023-05-05T06:21:44.121Z,47.79
2023-05-05T06:23:06.845Z,47.50
2023-05-05T06:24:32.025Z,47.21
2023-05-05T06:25:55.842Z,46.82
2023-05-05T06:27:17.470Z,46.68
2023-05-05T06:28:39.397Z,45.94
2023-05-05T06:30:01.261Z,45.84
2023-05-05T06:31:22.814Z,45.65
2023-05-05T06:32:44.639Z,45.37
2023-05-05T06:34:12.028Z,44.89
2023-05-05T06:35:34.475Z,44.75
2023-05-05T06:36:56.080Z,45.33
2023-05-05T06:38:24.773Z,44.62
2023-05-05T06:39:46.555Z,44.38
2023-05-05T06:41:08.283Z,43.65
2023-05-05T06:42:32.068Z,43.97
2023-05-05T06:43:53.858Z,43.92
2023-05-05T06:45:15.668Z,43.63
2023-05-05T06:46:37.500Z,44.03
2023-05-05T06:48:01.572Z,43.75
2023-05-05T06:49:23.184Z,43.68
2023-05-05T06:50:47.400Z,43.52
2023-05-05T06:52:09.506Z,43.46
2023-05-05T06:53:45.082Z,43.60
2023-05-05T06:55:07.093Z,41.83
2023-05-05T06:56:29.040Z,41.52
2023-05-05T06:57:58.274Z,41.25
2023-05-05T06:59:20.019Z,41.09
2023-05-05T07:00:42.310Z,41.11
2023-05-05T07:02:04.130Z,40.45
2023-05-05T07:03:25.957Z,40.38
2023-05-05T07:04:52.394Z,41.84
2023-05-05T07:06:14.543Z,41.74
2023-05-05T07:07:38.210Z,40.91
2023-05-05T07:09:02.695Z,39.83
2023-05-05T07:10:24.371Z,39.62
2023-05-05T07:11:46.667Z,40.84
2023-05-05T07:13:08.826Z,40.98
2023-05-05T07:14:30.671Z,41.31
2023-05-05T07:15:52.307Z,41.24
2023-05-05T07:17:14.213Z,40.73
2023-05-05T07:18:36.001Z,40.34
2023-05-05T07:19:57.945Z,38.13
2023-05-05T07:21:19.636Z,37.72
2023-05-05T07:22:41.508Z,38.97
2023-05-05T07:24:05.745Z,39.87
2023-05-05T07:25:27.857Z,39.78
2023-05-05T07:26:49.167Z,37.81
2023-05-05T07:28:11.452Z,37.90
2023-05-05T07:29:32.982Z,37.69
2023-05-05T07:30:54.735Z,37.19
2023-05-05T07:32:19.211Z,36.81
2023-05-05T07:33:41.266Z,36.87
2023-05-05T07:35:03.596Z,36.07
2023-05-05T07:36:25.277Z,36.21
2023-05-05T07:37:49.365Z,36.44
2023-05-05T07:39:21.815Z,35.41
2023-05-05T07:40:43.575Z,36.62
2023-05-05T07:42:06.751Z,36.44
2023-05-05T07:43:28.569Z,36.12
2023-05-05T07:44:50.352Z,35.91
2023-05-05T07:46:19.526Z,36.34
2023-05-05T07:47:41.697Z,37.08
2023-05-05T07:49:03.527Z,37.41
2023-05-05T07:50:28.068Z,36.32
2023-05-05T07:51:54.355Z,36.01
2023-05-05T07:53:18.330Z,35.65
2023-05-05T07:54:42.544Z,35.58
2023-05-05T07:56:04.297Z,35.13
2023-05-05T07:57:26.325Z,34.63
2023-05-05T07:58:48.088Z,34.75
2023-05-05T08:00:10.878Z,35.47
2023-05-05T08:01:38.226Z,34.96
2023-05-05T08:03:00.372Z,35.76
2023-05-05T08:04:22.780Z,35.33
2023-05-05T08:05:45.120Z,34.93
2023-05-05T08:07:08.064Z,34.73
2023-05-05T08:08:29.981Z,33.90
2023-05-05T08:09:51.647Z,34.13
2023-05-05T08:11:21.200Z,33.91
2023-05-05T08:12:45.273Z,33.58
2023-05-05T08:14:07.423Z,33.91
2023-05-05T08:15:33.925Z,34.14
2023-05-05T08:16:57.508Z,34.41
2023-05-05T08:18:21.357Z,34.11
2023-05-05T08:19:42.868Z,34.02
2023-05-05T08:21:16.289Z,33.64
2023-05-05T08:22:49.804Z,33.59
2023-05-05T08:24:13.788Z,35.47
2023-05-05T08:25:35.534Z,36.16
2023-05-05T08:26:56.761Z,36.76
2023-05-05T08:31:28.107Z,34.27
2023-05-05T08:32:52.172Z,33.43
2023-05-05T08:34:16.450Z,32.85
2023-05-05T08:35:38.311Z,33.12
2023-05-05T08:37:11.764Z,32.98
2023-05-05T08:38:33.401Z,34.04
2023-05-05T08:39:54.990Z,33.03
2023-05-05T08:41:16.784Z,33.61
2023-05-05T08:42:39.580Z,33.35
2023-05-05T08:44:06.670Z,32.81
2023-05-05T08:45:28.170Z,33.10
2023-05-05T08:46:50.195Z,32.75
2023-05-05T08:48:12.299Z,32.19
2023-05-05T08:49:36.179Z,32.10
2023-05-05T08:51:01.375Z,32.27
2023-05-05T08:52:24.586Z,32.57
2023-05-05T08:53:47.099Z,33.04
2023-05-05T08:55:16.772Z,33.41
2023-05-05T08:56:40.799Z,34.56
2023-05-05T08:58:06.145Z,33.45
2023-05-05T08:59:30.283Z,33.32
2023-05-05T09:00:51.692Z,34.65
2023-05-05T09:02:23.730Z,33.25
2023-05-05T09:03:47.509Z,34.46
2023-05-05T09:05:10.014Z,33.54
2023-05-05T09:06:33.734Z,32.78
2023-05-05T09:07:55.608Z,33.64
2023-05-05T09:09:36.804Z,35.49
2023-05-05T09:11:12.202Z,35.70
2023-05-05T09:12:36.388Z,34.50
2023-05-05T09:14:09.669Z,33.59
2023-05-05T09:15:34.278Z,34.82
2023-05-05T09:16:56.058Z,34.72
2023-05-05T09:18:20.185Z,35.52
2023-05-05T09:19:42.096Z,33.69
2023-05-05T09:21:03.788Z,34.88
2023-05-05T09:22:25.205Z,34.79
2023-05-05T09:23:47.137Z,34.27
2023-05-05T09:25:09.111Z,34.32
2023-05-05T09:26:30.971Z,34.54
2023-05-05T09:27:52.824Z,34.49
2023-05-05T09:29:14.912Z,34.33
2023-05-05T09:30:36.805Z,34.76
2023-05-05T09:31:58.825Z,33.99
2023-05-05T09:33:20.928Z,34.18
2023-05-05T09:34:42.879Z,33.43
2023-05-05T09:36:04.608Z,33.77
2023-05-05T09:37:26.445Z,33.88
2023-05-05T09:38:50.692Z,34.31
2023-05-05T09:40:12.892Z,31.42
2023-05-05T09:41:34.895Z,30.85
2023-05-05T09:42:56.042Z,31.55
2023-05-05T09:44:20.091Z,33.78
2023-05-05T09:45:44.108Z,34.50
2023-05-05T09:47:22.031Z,33.53
2023-05-05T09:48:49.986Z,34.73
2023-05-05T09:50:14.276Z,34.20
2023-05-05T09:51:38.595Z,32.96
2023-05-05T09:53:00.557Z,32.72
2023-05-05T09:54:27.574Z,33.39
2023-05-05T09:56:00.419Z,32.93
2023-05-05T09:57:27.067Z,33.19
2023-05-05T09:58:48.501Z,32.15
2023-05-05T10:00:11.423Z,34.77
2023-05-05T10:01:44.996Z,33.69
2023-05-05T10:03:11.771Z,32.57
2023-05-05T10:04:45.404Z,34.60
2023-05-05T10:06:07.927Z,32.54
2023-05-05T10:07:30.363Z,31.08
2023-05-05T10:08:54.073Z,29.92
2023-05-05T10:10:16.481Z,31.35
2023-05-05T10:11:38.266Z,31.07
2023-05-05T10:12:59.776Z,30.36
2023-05-05T10:14:29.343Z,31.03
2023-05-05T10:16:09.972Z,31.81
2023-05-05T10:17:33.014Z,30.83
2023-05-05T10:18:56.952Z,30.26
2023-05-05T10:20:18.649Z,31.12
2023-05-05T10:21:47.842Z,31.64
2023-05-05T10:23:17.332Z,31.08
2023-05-05T10:24:38.818Z,30.36
2023-05-05T10:26:08.239Z,30.41
2023-05-05T10:27:32.330Z,30.45
2023-05-05T10:29:06.021Z,30.80
2023-05-05T10:30:30.247Z,30.37
2023-05-05T10:31:52.070Z,30.70
2023-05-05T10:33:30.093Z,31.88
2023-05-05T10:34:53.124Z,33.29
2023-05-05T10:36:26.960Z,33.45
2023-05-05T10:37:50.949Z,33.53
2023-05-05T10:39:15.043Z,33.43
2023-05-05T10:40:39.453Z,33.21
2023-05-05T10:42:02.314Z,33.33
2023-05-05T10:43:24.453Z,34.78
2023-05-05T10:44:46.017Z,33.51
2023-05-05T10:46:07.816Z,32.93
2023-05-05T10:47:31.758Z,33.09
2023-05-05T10:49:01.015Z,32.75
2023-05-05T10:50:22.678Z,33.05
2023-05-05T10:51:44.343Z,32.44
2023-05-05T10:53:13.906Z,32.95
2023-05-05T10:54:37.821Z,32.06
2023-05-05T10:55:59.910Z,31.89
2023-05-05T10:57:22.047Z,32.98
2023-05-05T10:58:55.387Z,32.20
2023-05-05T11:00:28.418Z,31.21
2023-05-05T11:02:01.398Z,32.33
2023-05-05T11:03:23.890Z,32.00
2023-05-05T11:04:45.461Z,31.34
2023-05-05T11:06:12.442Z,31.98
2023-05-05T11:07:46.139Z,32.19
2023-05-05T11:09:15.215Z,32.21
2023-05-05T11:10:50.897Z,30.93
2023-05-05T11:12:13.820Z,30.15
2023-05-05T11:13:49.505Z,31.29
2023-05-05T11:15:11.317Z,30.21
2023-05-05T11:16:32.889Z,30.12
2023-05-05T11:18:08.964Z,29.61
2023-05-05T11:19:42.389Z,30.08
2023-05-05T11:21:04.345Z,29.93
2023-05-05T11:22:28.040Z,28.19
2023-05-05T11:24:00.955Z,27.92
2023-05-05T11:25:24.963Z,28.82
2023-05-05T11:26:46.861Z,28.86
2023-05-05T11:28:39.954Z,26.10
2023-05-05T11:30:33.097Z,25.57
2023-05-05T11:32:04.801Z,25.64
2023-05-05T11:33:45.532Z,25.98
2023-05-05T11:35:21.884Z,27.40
2023-05-05T11:36:57.124Z,28.33
2023-05-05T11:38:38.253Z,28.83
2023-05-05T11:39:59.902Z,30.81
2023-05-05T11:41:21.728Z,30.30
2023-05-05T11:42:50.845Z,30.53
2023-05-05T11:44:27.024Z,30.50
2023-05-05T11:46:00.312Z,30.72
2023-05-05T11:47:24.800Z,31.15
2023-05-05T11:48:58.209Z,30.72
2023-05-05T11:50:30.200Z,31.16
2023-05-05T11:51:56.065Z,30.87
2023-05-05T11:53:18.247Z,31.41
2023-05-05T11:54:41.793Z,32.90
2023-05-05T11:56:05.842Z,33.24
2023-05-05T11:57:27.731Z,32.52
2023-05-05T11:59:10.998Z,32.64
2023-05-05T12:00:42.308Z,33.53
2023-05-05T12:02:03.960Z,32.65
2023-05-05T12:03:38.062Z,32.76
2023-05-05T12:05:04.828Z,33.17
2023-05-05T12:06:46.020Z,33.37
2023-05-05T12:08:08.374Z,33.38
2023-05-05T12:09:29.775Z,33.95
2023-05-05T12:11:06.160Z,34.88
2023-05-05T12:12:28.594Z,34.52
2023-05-05T12:13:49.947Z,33.93
2023-05-05T12:15:14.405Z,32.93
2023-05-05T12:16:38.541Z,32.86
2023-05-05T12:18:02.385Z,34.54
2023-05-05T12:19:33.206Z,34.43
2023-05-05T12:20:54.607Z,34.60
2023-05-05T12:22:19.450Z,33.91
2023-05-05T12:23:41.361Z,34.30
2023-05-05T12:25:02.627Z,34.35
2023-05-05T12:26:25.236Z,33.96
2023-05-05T12:27:49.650Z,34.03
2023-05-05T12:29:11.702Z,33.92
2023-05-05T12:30:33.641Z,33.90
2023-05-05T12:31:57.967Z,34.05
2023-05-05T12:33:20.578Z,32.77
2023-05-05T12:34:57.245Z,33.27
2023-05-05T12:36:19.413Z,33.88
2023-05-05T12:37:43.485Z,34.09
2023-05-05T12:39:05.520Z,34.14
2023-05-05T12:40:27.085Z,33.84
2023-05-05T12:41:50.833Z,33.58
2023-05-05T12:43:17.482Z,34.24
2023-05-05T12:44:43.580Z,34.53
2023-05-05T12:46:07.676Z,35.14
2023-05-05T12:47:36.935Z,35.23
2023-05-05T12:49:12.510Z,34.00
2023-05-05T12:50:34.581Z,33.59
2023-05-05T12:51:56.458Z,33.14
2023-05-05T12:53:20.784Z,34.64
2023-05-05T12:54:44.758Z,33.97
2023-05-05T12:56:06.940Z,33.61
2023-05-05T12:57:30.836Z,34.08
2023-05-05T12:58:55.073Z,34.58
2023-05-05T13:00:18.063Z,34.47
2023-05-05T13:01:42.192Z,34.75
2023-05-05T13:03:06.545Z,35.21
2023-05-05T13:04:30.636Z,34.86
2023-05-05T13:05:52.099Z,34.33
2023-05-05T13:07:21.155Z,35.00
2023-05-05T13:08:54.580Z,34.73
2023-05-05T13:10:16.850Z,34.14
2023-05-05T13:11:38.763Z,34.44
2023-05-05T13:13:00.192Z,34.47
2023-05-05T13:14:25.050Z,35.67
2023-05-05T13:16:00.892Z,34.21
2023-05-05T13:17:34.707Z,33.78
2023-05-05T13:19:08.440Z,33.18
2023-05-05T13:20:29.969Z,32.90
2023-05-05T13:21:51.643Z,33.00
2023-05-05T13:23:14.028Z,33.36
2023-05-05T13:24:49.762Z,33.41
2023-05-05T13:26:13.597Z,33.70
2023-05-05T13:27:37.682Z,33.96
2023-05-05T13:28:59.508Z,33.68
2023-05-05T13:30:21.473Z,33.13
2023-05-05T13:31:50.578Z,33.32
2023-05-05T13:33:14.824Z,33.65
2023-05-05T13:34:39.284Z,33.00
2023-05-05T13:36:08.879Z,33.03
2023-05-05T13:37:30.634Z,32.45
2023-05-05T13:38:54.673Z,31.50
2023-05-05T13:40:18.930Z,31.14
2023-05-05T13:41:40.727Z,31.05
2023-05-05T13:43:14.141Z,31.84
2023-05-05T13:44:37.896Z,32.33
2023-05-05T13:46:08.700Z,32.46
2023-05-05T13:47:39.062Z,32.17
2023-05-05T13:49:12.677Z,32.26
2023-05-05T13:50:36.540Z,32.98
2023-05-05T13:51:58.529Z,32.31
2023-05-05T13:53:40.210Z,31.96
2023-05-05T13:55:01.750Z,32.32
2023-05-05T13:56:37.979Z,32.52
2023-05-05T13:58:02.020Z,31.71
2023-05-05T13:59:25.789Z,31.43
2023-05-05T14:00:55.227Z,31.25
2023-05-05T14:02:24.925Z,30.04
2023-05-05T14:04:13.858Z,29.18
2023-05-05T14:05:42.800Z,29.80
2023-05-05T14:07:04.809Z,28.58
2023-05-05T14:08:46.059Z,28.78
2023-05-05T14:10:08.072Z,28.43
2023-05-05T14:11:31.518Z,28.89
2023-05-05T14:12:53.391Z,29.03
2023-05-05T14:14:16.308Z,29.06
2023-05-05T14:15:39.927Z,29.18
2023-05-05T14:17:01.983Z,29.17
2023-05-05T14:18:24.015Z,29.04
2023-05-05T14:19:45.726Z,28.94
2023-05-05T14:21:12.507Z,29.53
2023-05-05T14:22:38.387Z,29.00
2023-05-05T14:23:59.995Z,28.99
2023-05-05T14:25:24.673Z,29.48
2023-05-05T14:26:48.952Z,28.74
2023-05-05T14:28:11.528Z,28.41
2023-05-05T14:29:35.291Z,27.91
2023-05-05T14:30:57.198Z,29.35
2023-05-05T14:32:27.235Z,29.12
2023-05-05T14:33:56.571Z,28.81
2023-05-05T14:35:18.645Z,28.92
2023-05-05T14:36:41.149Z,28.56
2023-05-05T14:38:07.536Z,27.79
2023-05-05T14:39:31.888Z,28.20
2023-05-05T14:40:55.838Z,29.68
2023-05-05T14:42:17.882Z,29.64
2023-05-05T14:43:51.298Z,30.05
2023-05-05T14:45:21.189Z,30.86
2023-05-05T14:46:54.338Z,31.98
2023-05-05T14:48:16.661Z,32.32
2023-05-05T14:49:38.620Z,32.97
2023-05-05T14:51:02.999Z,33.95
2023-05-05T14:52:24.897Z,33.96
2023-05-05T14:53:58.506Z,34.19
2023-05-05T14:55:24.873Z,34.50
2023-05-05T14:56:46.982Z,34.75
2023-05-05T14:58:09.217Z,35.35
2023-05-05T14:59:33.556Z,35.50
2023-05-05T15:01:02.425Z,35.28
2023-05-05T15:02:24.509Z,34.99
2023-05-05T15:03:46.233Z,34.48
2023-05-05T15:05:08.418Z,35.04
2023-05-05T15:06:31.146Z,34.74
2023-05-05T15:07:52.517Z,34.98
2023-05-05T15:09:26.216Z,34.92
2023-05-05T15:10:48.108Z,34.17
2023-05-05T15:12:12.328Z,34.24
2023-05-05T15:13:45.935Z,34.13
2023-05-05T15:15:08.954Z,33.78
2023-05-05T15:16:31.719Z,34.03
2023-05-05T15:17:54.211Z,33.97
2023-05-05T15:19:27.713Z,34.55
2023-05-05T15:20:49.241Z,33.84
2023-05-05T15:22:13.563Z,33.67
2023-05-05T15:23:44.946Z,33.07
2023-05-05T15:25:09.788Z,33.55
2023-05-05T15:26:34.511Z,33.21
2023-05-05T15:28:10.924Z,32.92
2023-05-05T15:29:32.523Z,32.54
2023-05-05T15:30:54.062Z,33.01
2023-05-05T15:32:16.089Z,33.04
2023-05-05T15:33:38.737Z,33.20
2023-05-05T15:35:00.221Z,33.58
2023-05-05T15:36:30.092Z,33.61
2023-05-05T15:37:54.161Z,33.89
2023-05-05T15:39:23.367Z,34.45
2023-05-05T15:40:50.344Z,34.40
2023-05-05T15:42:12.540Z,34.61
2023-05-05T15:43:34.260Z,34.78
2023-05-05T15:44:55.539Z,34.62
2023-05-05T15:46:17.532Z,34.47
2023-05-05T15:47:41.542Z,34.29
2023-05-05T15:49:03.163Z,34.29
2023-05-05T15:50:24.947Z,34.68
2023-05-05T15:51:48.011Z,34.86
2023-05-05T15:53:10.109Z,34.79
2023-05-05T15:54:38.852Z,35.06
2023-05-05T15:56:00.431Z,35.36
2023-05-05T15:57:24.528Z,35.53
2023-05-05T15:58:45.880Z,35.53
2023-05-05T16:00:07.892Z,36.22
2023-05-05T16:01:29.361Z,36.24
2023-05-05T16:02:53.205Z,36.05
2023-05-05T16:04:22.234Z,36.29
2023-05-05T16:05:44.183Z,36.62
2023-05-05T16:07:05.940Z,37.07
2023-05-05T16:08:27.813Z,37.51
2023-05-05T16:09:49.378Z,37.72
2023-05-05T16:11:19.460Z,37.66
2023-05-05T16:12:44.460Z,38.28
2023-05-05T16:14:18.522Z,38.79
2023-05-05T16:15:49.698Z,39.36
2023-05-05T16:17:11.692Z,39.23
2023-05-05T16:18:33.528Z,39.54
2023-05-05T16:20:02.702Z,39.54
2023-05-05T16:21:36.653Z,39.89
2023-05-05T16:22:58.089Z,40.53
2023-05-05T16:24:19.958Z,41.30
2023-05-05T16:25:41.734Z,41.49
2023-05-05T16:27:03.105Z,41.60
2023-05-05T16:28:24.806Z,41.86
2023-05-05T16:29:49.257Z,42.14
2023-05-05T16:31:11.267Z,41.86
2023-05-05T16:32:40.543Z,42.19
2023-05-05T16:34:02.219Z,42.34
2023-05-05T16:35:33.700Z,42.48
2023-05-05T16:36:56.635Z,42.89
2023-05-05T16:38:18.214Z,42.98
2023-05-05T16:39:41.166Z,43.47
2023-05-05T16:41:12.638Z,43.91
2023-05-05T16:42:34.351Z,44.05
2023-05-05T16:43:58.321Z,43.91
2023-05-05T16:45:22.525Z,43.72
2023-05-05T16:46:44.522Z,44.22
2023-05-05T16:48:08.889Z,44.39
2023-05-05T16:49:31.247Z,44.79
2023-05-05T16:50:52.719Z,44.51
2023-05-05T16:52:14.744Z,44.60
2023-05-05T16:53:40.601Z,44.87
2023-05-05T16:55:04.851Z,44.92
2023-05-05T16:56:26.498Z,44.93
2023-05-05T16:57:50.444Z,45.00
2023-05-05T16:59:12.928Z,45.16
2023-05-05T17:00:54.439Z,45.68
2023-05-05T17:02:35.499Z,45.36
2023-05-05T17:04:20.112Z,45.37
2023-05-05T17:05:41.927Z,45.39
2023-05-05T17:07:03.380Z,45.90
2023-05-05T17:08:25.240Z,45.86
2023-05-05T17:09:47.270Z,45.94
2023-05-05T17:11:10.977Z,46.50
2023-05-05T17:12:33.252Z,46.40
2023-05-05T17:14:06.873Z,46.64
2023-05-05T17:15:30.835Z,46.69
2023-05-05T17:16:54.276Z,46.61
2023-05-05T17:18:16.446Z,46.92
2023-05-05T17:19:38.363Z,47.13
2023-05-05T17:21:07.776Z,47.11
2023-05-05T17:22:29.792Z,47.48
2023-05-05T17:23:53.311Z,47.74
2023-05-05T17:25:15.458Z,48.31
2023-05-05T17:26:38.776Z,48.58
2023-05-05T17:28:00.248Z,49.10
2023-05-05T17:29:23.301Z,49.49
2023-05-05T17:30:45.112Z,49.46
2023-05-05T17:32:06.927Z,49.89
2023-05-05T17:33:28.791Z,49.98
2023-05-05T17:34:50.658Z,50.28
2023-05-05T17:36:12.816Z,50.37
2023-05-05T17:37:41.927Z,50.67
2023-05-05T17:39:15.179Z,50.39
2023-05-05T17:40:39.756Z,50.70
2023-05-05T17:42:01.213Z,50.67
2023-05-05T17:43:22.968Z,50.91
2023-05-05T17:44:46.358Z,51.01
2023-05-05T17:46:09.461Z,51.21
2023-05-05T17:47:31.516Z,50.98
2023-05-05T17:49:00.850Z,51.31
2023-05-05T17:50:22.747Z,51.33
2023-05-05T17:51:44.257Z,51.60
2023-05-05T17:53:05.884Z,51.55
2023-05-05T17:54:27.980Z,51.35
2023-05-05T17:55:49.652Z,51.66
2023-05-05T17:57:23.438Z,51.68
2023-05-05T17:58:44.956Z,51.90
2023-05-05T18:00:08.994Z,52.14
2023-05-05T18:01:36.758Z,52.38
2023-05-05T18:02:57.951Z,52.14
2023-05-05T18:04:19.877Z,52.48
2023-05-05T18:05:44.025Z,52.54
2023-05-05T18:07:08.437Z,52.56
2023-05-05T18:08:30.865Z,52.72
2023-05-05T18:09:55.253Z,52.66
2023-05-05T18:11:28.766Z,52.59
2023-05-05T18:12:50.735Z,52.72
2023-05-05T18:14:24.502Z,52.75
2023-05-05T18:15:46.524Z,53.01
2023-05-05T18:17:08.123Z,52.50